Portada
METAR-TAF:

METAR-TAF

Aeroports :

Plataforma petroliera

Goeree Le, Països Baixos

latitud: 51-55-33N, longitud: 3-40-12E, altitud: 19 m

Observació

L'informe es va fer fa 41 minuts, a les 08:55 UTC
Vent 7 kt del Sud-Oest, variant entre Sud/Sud-Est i Oest
Temperatura 6°C
Humitat 93%
Pressió 1037 hPa
Visibilitat: 5000 m
boirina

METAR: EHSC 220855Z AUTO 22007KT 160V260 5000 BR ///////// 06/05 Q1037 W08/H5

Hora: 10:36 (09:36 UTC)


TAF: manca

Observacions i pronòstics meteorològics de més de 4000 aeroports (METAR i TAF).

Les estacions disponibles són els punts grocs i vermells al mapa.

Posi el ratolí al punt desitjat per veure el nom de l'estació.

Feu clic per veure les observacions i els pronòstics meteorològics.

Per canviar el mapa: feu clic els botons verds amb una creu de color negre per apropar; al botó verd amb un guió per allunyar la imatge; o en les fletxes verdes per a mapes adjacents.


METAR-TAF: